sensor_id;sensor_type;location;lat;lon;timestamp;temperature;humidity
22379;DHT22;11357;49.990;7.370;2024-03-17T00:02:22;7.40;90.30
22379;DHT22;11357;49.990;7.370;2024-03-17T00:04:48;7.40;90.20
22379;DHT22;11357;49.990;7.370;2024-03-17T00:07:14;7.50;90.20
22379;DHT22;11357;49.990;7.370;2024-03-17T00:09:40;7.50;90.20
22379;DHT22;11357;49.990;7.370;2024-03-17T00:12:06;7.50;90.20
22379;DHT22;11357;49.990;7.370;2024-03-17T00:14:33;7.50;90.10
22379;DHT22;11357;49.990;7.370;2024-03-17T00:17:00;7.50;90.10
22379;DHT22;11357;49.990;7.370;2024-03-17T00:19:26;7.40;90.00
22379;DHT22;11357;49.990;7.370;2024-03-17T00:21:52;7.30;90.10
22379;DHT22;11357;49.990;7.370;2024-03-17T00:24:19;7.30;90.10
22379;DHT22;11357;49.990;7.370;2024-03-17T00:26:46;7.30;90.10
22379;DHT22;11357;49.990;7.370;2024-03-17T00:29:11;7.30;90.00
22379;DHT22;11357;49.990;7.370;2024-03-17T00:31:37;7.20;90.00
22379;DHT22;11357;49.990;7.370;2024-03-17T00:34:03;7.20;90.10
22379;DHT22;11357;49.990;7.370;2024-03-17T00:36:29;7.20;90.10
22379;DHT22;11357;49.990;7.370;2024-03-17T00:38:56;7.20;90.10
22379;DHT22;11357;49.990;7.370;2024-03-17T00:41:22;7.20;90.10
22379;DHT22;11357;49.990;7.370;2024-03-17T00:43:51;7.20;90.00
22379;DHT22;11357;49.990;7.370;2024-03-17T00:46:21;7.20;90.00
22379;DHT22;11357;49.990;7.370;2024-03-17T00:48:48;7.20;90.00
22379;DHT22;11357;49.990;7.370;2024-03-17T00:51:15;7.20;90.30
22379;DHT22;11357;49.990;7.370;2024-03-17T00:53:40;7.20;90.00
22379;DHT22;11357;49.990;7.370;2024-03-17T00:56:06;7.30;90.10
22379;DHT22;11357;49.990;7.370;2024-03-17T00:58:32;7.30;90.00
22379;DHT22;11357;49.990;7.370;2024-03-17T01:00:58;7.30;90.00
22379;DHT22;11357;49.990;7.370;2024-03-17T01:03:23;7.30;90.00
22379;DHT22;11357;49.990;7.370;2024-03-17T01:05:49;7.30;90.00
22379;DHT22;11357;49.990;7.370;2024-03-17T01:08:18;7.30;90.00
22379;DHT22;11357;49.990;7.370;2024-03-17T01:10:45;7.20;90.00
22379;DHT22;11357;49.990;7.370;2024-03-17T01:13:13;7.10;90.00
22379;DHT22;11357;49.990;7.370;2024-03-17T01:15:40;7.10;90.10
22379;DHT22;11357;49.990;7.370;2024-03-17T01:18:06;7.00;90.20
22379;DHT22;11357;49.990;7.370;2024-03-17T01:20:32;7.00;90.20
22379;DHT22;11357;49.990;7.370;2024-03-17T01:22:59;7.00;90.30
22379;DHT22;11357;49.990;7.370;2024-03-17T01:25:25;7.00;90.20
22379;DHT22;11357;49.990;7.370;2024-03-17T01:27:52;7.00;90.20
22379;DHT22;11357;49.990;7.370;2024-03-17T01:30:18;6.90;90.30
22379;DHT22;11357;49.990;7.370;2024-03-17T01:32:48;6.90;90.40
22379;DHT22;11357;49.990;7.370;2024-03-17T01:35:14;6.90;90.40
22379;DHT22;11357;49.990;7.370;2024-03-17T01:37:40;6.90;90.40
22379;DHT22;11357;49.990;7.370;2024-03-17T01:40:06;7.00;90.50
22379;DHT22;11357;49.990;7.370;2024-03-17T01:42:38;7.00;90.50
22379;DHT22;11357;49.990;7.370;2024-03-17T01:45:29;7.00;90.50
22379;DHT22;11357;49.990;7.370;2024-03-17T01:47:55;7.00;90.50
22379;DHT22;11357;49.990;7.370;2024-03-17T01:50:24;7.00;90.30
22379;DHT22;11357;49.990;7.370;2024-03-17T01:52:55;7.00;90.40
22379;DHT22;11357;49.990;7.370;2024-03-17T01:55:22;7.00;90.40
22379;DHT22;11357;49.990;7.370;2024-03-17T01:57:49;7.00;90.40
22379;DHT22;11357;49.990;7.370;2024-03-17T02:00:15;7.00;90.30
22379;DHT22;11357;49.990;7.370;2024-03-17T02:02:41;7.00;90.30
22379;DHT22;11357;49.990;7.370;2024-03-17T02:05:07;7.00;90.30
22379;DHT22;11357;49.990;7.370;2024-03-17T02:07:33;7.00;90.30
22379;DHT22;11357;49.990;7.370;2024-03-17T02:09:58;7.00;90.30
22379;DHT22;11357;49.990;7.370;2024-03-17T02:12:25;6.90;90.20
22379;DHT22;11357;49.990;7.370;2024-03-17T02:14:51;6.90;90.20
22379;DHT22;11357;49.990;7.370;2024-03-17T02:17:16;6.90;90.20
22379;DHT22;11357;49.990;7.370;2024-03-17T02:19:42;6.90;90.20
22379;DHT22;11357;49.990;7.370;2024-03-17T02:22:14;6.80;90.20
22379;DHT22;11357;49.990;7.370;2024-03-17T02:24:42;6.80;90.20
22379;DHT22;11357;49.990;7.370;2024-03-17T02:27:08;6.80;90.20
22379;DHT22;11357;49.990;7.370;2024-03-17T02:29:34;6.70;90.20
22379;DHT22;11357;49.990;7.370;2024-03-17T02:32:03;6.70;90.20
22379;DHT22;11357;49.990;7.370;2024-03-17T02:34:36;6.70;90.20
22379;DHT22;11357;49.990;7.370;2024-03-17T02:37:02;6.60;90.10
22379;DHT22;11357;49.990;7.370;2024-03-17T02:39:30;6.60;90.10
22379;DHT22;11357;49.990;7.370;2024-03-17T02:42:06;6.60;90.10
22379;DHT22;11357;49.990;7.370;2024-03-17T02:44:34;6.60;90.10
22379;DHT22;11357;49.990;7.370;2024-03-17T02:47:00;6.50;90.00
22379;DHT22;11357;49.990;7.370;2024-03-17T02:49:26;6.50;90.00
22379;DHT22;11357;49.990;7.370;2024-03-17T02:51:54;6.50;90.00
22379;DHT22;11357;49.990;7.370;2024-03-17T02:54:21;6.40;90.00
22379;DHT22;11357;49.990;7.370;2024-03-17T02:56:47;6.40;90.00
22379;DHT22;11357;49.990;7.370;2024-03-17T02:59:13;6.30;90.00
22379;DHT22;11357;49.990;7.370;2024-03-17T03:01:38;6.30;90.00
22379;DHT22;11357;49.990;7.370;2024-03-17T03:04:05;6.30;90.00
22379;DHT22;11357;49.990;7.370;2024-03-17T03:06:31;6.30;90.00
22379;DHT22;11357;49.990;7.370;2024-03-17T03:08:57;6.30;90.00
22379;DHT22;11357;49.990;7.370;2024-03-17T03:11:22;6.30;90.00
22379;DHT22;11357;49.990;7.370;2024-03-17T03:13:48;6.20;89.90
22379;DHT22;11357;49.990;7.370;2024-03-17T03:16:14;6.20;90.00
22379;DHT22;11357;49.990;7.370;2024-03-17T03:18:40;6.20;90.00
22379;DHT22;11357;49.990;7.370;2024-03-17T03:21:07;6.20;90.00
22379;DHT22;11357;49.990;7.370;2024-03-17T03:23:32;6.20;90.00
22379;DHT22;11357;49.990;7.370;2024-03-17T03:25:59;6.20;90.00
22379;DHT22;11357;49.990;7.370;2024-03-17T03:28:26;6.20;90.10
22379;DHT22;11357;49.990;7.370;2024-03-17T03:30:52;6.20;90.40
22379;DHT22;11357;49.990;7.370;2024-03-17T03:33:21;6.20;90.10
22379;DHT22;11357;49.990;7.370;2024-03-17T03:35:47;6.10;90.10
22379;DHT22;11357;49.990;7.370;2024-03-17T03:38:14;6.10;90.50
22379;DHT22;11357;49.990;7.370;2024-03-17T03:40:41;6.10;90.20
22379;DHT22;11357;49.990;7.370;2024-03-17T03:43:08;6.10;90.30
22379;DHT22;11357;49.990;7.370;2024-03-17T03:45:34;6.10;90.40
22379;DHT22;11357;49.990;7.370;2024-03-17T03:48:01;6.00;90.50
22379;DHT22;11357;49.990;7.370;2024-03-17T03:50:26;5.90;90.50
22379;DHT22;11357;49.990;7.370;2024-03-17T03:52:52;5.90;90.70
22379;DHT22;11357;49.990;7.370;2024-03-17T03:55:19;5.90;90.70
22379;DHT22;11357;49.990;7.370;2024-03-17T03:57:45;5.90;90.80
22379;DHT22;11357;49.990;7.370;2024-03-17T04:00:16;5.90;90.90
22379;DHT22;11357;49.990;7.370;2024-03-17T04:02:44;5.90;91.00
22379;DHT22;11357;49.990;7.370;2024-03-17T04:05:10;5.90;91.00
22379;DHT22;11357;49.990;7.370;2024-03-17T04:07:38;6.00;91.10
22379;DHT22;11357;49.990;7.370;2024-03-17T04:10:05;6.00;91.00
22379;DHT22;11357;49.990;7.370;2024-03-17T04:12:31;6.00;91.10
22379;DHT22;11357;49.990;7.370;2024-03-17T04:14:58;6.10;91.10
22379;DHT22;11357;49.990;7.370;2024-03-17T04:17:24;6.10;91.10
22379;DHT22;11357;49.990;7.370;2024-03-17T04:19:51;6.10;91.20
22379;DHT22;11357;49.990;7.370;2024-03-17T04:22:18;6.20;91.20
22379;DHT22;11357;49.990;7.370;2024-03-17T04:24:47;6.20;91.10
22379;DHT22;11357;49.990;7.370;2024-03-17T04:27:14;6.30;91.10
22379;DHT22;11357;49.990;7.370;2024-03-17T04:29:40;6.40;91.00
22379;DHT22;11357;49.990;7.370;2024-03-17T04:32:06;6.40;91.00
22379;DHT22;11357;49.990;7.370;2024-03-17T04:34:32;6.50;90.90
22379;DHT22;11357;49.990;7.370;2024-03-17T04:36:58;6.50;90.90
22379;DHT22;11357;49.990;7.370;2024-03-17T04:39:25;6.40;90.80
22379;DHT22;11357;49.990;7.370;2024-03-17T04:41:50;6.40;90.80
22379;DHT22;11357;49.990;7.370;2024-03-17T04:44:17;6.50;90.80
22379;DHT22;11357;49.990;7.370;2024-03-17T04:46:43;6.40;90.80
22379;DHT22;11357;49.990;7.370;2024-03-17T04:49:09;6.50;90.80
22379;DHT22;11357;49.990;7.370;2024-03-17T04:51:35;6.50;90.80
22379;DHT22;11357;49.990;7.370;2024-03-17T04:54:01;6.50;90.80
22379;DHT22;11357;49.990;7.370;2024-03-17T04:56:29;6.40;90.80
22379;DHT22;11357;49.990;7.370;2024-03-17T04:58:55;6.40;90.80
22379;DHT22;11357;49.990;7.370;2024-03-17T05:01:21;6.40;90.90
22379;DHT22;11357;49.990;7.370;2024-03-17T05:03:47;6.50;90.90
22379;DHT22;11357;49.990;7.370;2024-03-17T05:06:12;6.40;90.90
22379;DHT22;11357;49.990;7.370;2024-03-17T05:08:38;6.40;90.80
22379;DHT22;11357;49.990;7.370;2024-03-17T05:11:05;6.40;90.80
22379;DHT22;11357;49.990;7.370;2024-03-17T05:13:36;6.40;90.80
22379;DHT22;11357;49.990;7.370;2024-03-17T05:16:04;6.30;90.70
22379;DHT22;11357;49.990;7.370;2024-03-17T05:18:31;6.40;91.10
22379;DHT22;11357;49.990;7.370;2024-03-17T05:21:05;6.40;90.80
22379;DHT22;11357;49.990;7.370;2024-03-17T05:23:32;6.30;90.70
22379;DHT22;11357;49.990;7.370;2024-03-17T05:25:59;6.30;90.70
22379;DHT22;11357;49.990;7.370;2024-03-17T05:28:26;6.30;90.70
22379;DHT22;11357;49.990;7.370;2024-03-17T05:30:52;6.30;90.70
22379;DHT22;11357;49.990;7.370;2024-03-17T05:33:21;6.20;90.70
22379;DHT22;11357;49.990;7.370;2024-03-17T05:35:53;6.20;90.70
22379;DHT22;11357;49.990;7.370;2024-03-17T05:38:29;6.10;90.70
22379;DHT22;11357;49.990;7.370;2024-03-17T05:41:00;6.10;90.80
22379;DHT22;11357;49.990;7.370;2024-03-17T05:43:27;6.10;90.80
22379;DHT22;11357;49.990;7.370;2024-03-17T05:45:54;6.10;90.80
22379;DHT22;11357;49.990;7.370;2024-03-17T05:48:22;6.10;90.80
22379;DHT22;11357;49.990;7.370;2024-03-17T05:50:48;6.20;90.80
22379;DHT22;11357;49.990;7.370;2024-03-17T05:53:44;6.20;90.80
22379;DHT22;11357;49.990;7.370;2024-03-17T05:56:10;6.20;90.80
22379;DHT22;11357;49.990;7.370;2024-03-17T05:58:41;6.20;91.00
22379;DHT22;11357;49.990;7.370;2024-03-17T06:01:07;6.20;90.70
22379;DHT22;11357;49.990;7.370;2024-03-17T06:06:17;6.20;90.60
22379;DHT22;11357;49.990;7.370;2024-03-17T06:08:43;6.20;90.90
22379;DHT22;11357;49.990;7.370;2024-03-17T06:11:08;6.20;90.60
22379;DHT22;11357;49.990;7.370;2024-03-17T06:18:44;6.20;90.50
22379;DHT22;11357;49.990;7.370;2024-03-17T06:21:11;6.20;90.40
22379;DHT22;11357;49.990;7.370;2024-03-17T06:28:53;6.30;90.40
22379;DHT22;11357;49.990;7.370;2024-03-17T06:31:19;6.40;90.40
22379;DHT22;11357;49.990;7.370;2024-03-17T06:36:23;6.60;90.40
22379;DHT22;11357;49.990;7.370;2024-03-17T06:38:49;6.70;90.30
22379;DHT22;11357;49.990;7.370;2024-03-17T06:41:15;6.80;90.30
22379;DHT22;11357;49.990;7.370;2024-03-17T06:43:46;6.90;90.30
22379;DHT22;11357;49.990;7.370;2024-03-17T06:46:12;6.90;90.30
22379;DHT22;11357;49.990;7.370;2024-03-17T06:48:38;7.00;90.20
22379;DHT22;11357;49.990;7.370;2024-03-17T06:51:04;7.20;90.40
22379;DHT22;11357;49.990;7.370;2024-03-17T06:53:51;7.20;90.20
22379;DHT22;11357;49.990;7.370;2024-03-17T06:56:16;7.20;90.20
22379;DHT22;11357;49.990;7.370;2024-03-17T06:58:42;7.10;90.20
22379;DHT22;11357;49.990;7.370;2024-03-17T07:01:08;7.10;90.30
22379;DHT22;11357;49.990;7.370;2024-03-17T07:03:40;7.20;90.40
22379;DHT22;11357;49.990;7.370;2024-03-17T07:06:06;7.30;90.40
22379;DHT22;11357;49.990;7.370;2024-03-17T07:08:33;7.50;90.30
22379;DHT22;11357;49.990;7.370;2024-03-17T07:31:33;9.50;89.60
22379;DHT22;11357;49.990;7.370;2024-03-17T07:33:58;9.70;89.40
22379;DHT22;11357;49.990;7.370;2024-03-17T07:36:24;9.80;89.20
22379;DHT22;11357;49.990;7.370;2024-03-17T07:38:50;10.00;89.20
22379;DHT22;11357;49.990;7.370;2024-03-17T07:41:16;10.20;88.90
22379;DHT22;11357;49.990;7.370;2024-03-17T07:51:34;10.70;88.00
22379;DHT22;11357;49.990;7.370;2024-03-17T07:59:16;10.90;88.00
22379;DHT22;11357;49.990;7.370;2024-03-17T08:01:44;10.90;87.90
22379;DHT22;11357;49.990;7.370;2024-03-17T08:04:09;10.90;87.80
22379;DHT22;11357;49.990;7.370;2024-03-17T08:06:40;10.90;87.90
22379;DHT22;11357;49.990;7.370;2024-03-17T08:09:09;11.00;88.00
22379;DHT22;11357;49.990;7.370;2024-03-17T08:11:36;11.10;88.00
22379;DHT22;11357;49.990;7.370;2024-03-17T08:14:08;11.20;88.10
22379;DHT22;11357;49.990;7.370;2024-03-17T08:16:33;11.20;88.20
22379;DHT22;11357;49.990;7.370;2024-03-17T08:18:59;11.30;88.10
22379;DHT22;11357;49.990;7.370;2024-03-17T08:21:25;11.40;88.00
22379;DHT22;11357;49.990;7.370;2024-03-17T08:23:52;11.60;87.80
22379;DHT22;11357;49.990;7.370;2024-03-17T08:26:18;11.70;87.70
22379;DHT22;11357;49.990;7.370;2024-03-17T08:28:44;11.90;87.60
22379;DHT22;11357;49.990;7.370;2024-03-17T08:31:10;12.00;88.20
22379;DHT22;11357;49.990;7.370;2024-03-17T08:54:19;13.30;86.50
22379;DHT22;11357;49.990;7.370;2024-03-17T08:56:44;13.50;86.30
22379;DHT22;11357;49.990;7.370;2024-03-17T08:59:10;13.60;86.20
22379;DHT22;11357;49.990;7.370;2024-03-17T09:01:37;13.70;85.80
22379;DHT22;11357;49.990;7.370;2024-03-17T09:04:18;13.80;85.80
22379;DHT22;11357;49.990;7.370;2024-03-17T09:06:44;14.00;85.90
22379;DHT22;11357;49.990;7.370;2024-03-17T09:09:09;14.20;85.40
22379;DHT22;11357;49.990;7.370;2024-03-17T09:11:35;14.40;85.10
22379;DHT22;11357;49.990;7.370;2024-03-17T09:16:37;14.70;84.00
22379;DHT22;11357;49.990;7.370;2024-03-17T09:19:02;14.90;83.70
22379;DHT22;11357;49.990;7.370;2024-03-17T09:21:28;15.20;83.30
22379;DHT22;11357;49.990;7.370;2024-03-17T09:26:35;15.70;82.30
22379;DHT22;11357;49.990;7.370;2024-03-17T09:29:01;16.00;81.60
22379;DHT22;11357;49.990;7.370;2024-03-17T09:31:27;16.10;80.70
22379;DHT22;11357;49.990;7.370;2024-03-17T09:33:53;16.20;80.00
22379;DHT22;11357;49.990;7.370;2024-03-17T09:36:18;16.20;79.80
22379;DHT22;11357;49.990;7.370;2024-03-17T09:38:44;16.20;79.50
22379;DHT22;11357;49.990;7.370;2024-03-17T09:41:23;16.20;79.30
22379;DHT22;11357;49.990;7.370;2024-03-17T09:48:55;16.30;78.60
22379;DHT22;11357;49.990;7.370;2024-03-17T09:51:22;16.40;78.10
22379;DHT22;11357;49.990;7.370;2024-03-17T11:03:20;22.60;63.60
22379;DHT22;11357;49.990;7.370;2024-03-17T11:05:48;22.30;63.10
22379;DHT22;11357;49.990;7.370;2024-03-17T11:08:16;22.00;63.60
22379;DHT22;11357;49.990;7.370;2024-03-17T11:10:49;21.90;63.80
22379;DHT22;11357;49.990;7.370;2024-03-17T11:37:42;21.10;63.20
22379;DHT22;11357;49.990;7.370;2024-03-17T11:40:23;20.80;64.10
22379;DHT22;11357;49.990;7.370;2024-03-17T11:48:00;20.30;65.50
22379;DHT22;11357;49.990;7.370;2024-03-17T11:50:26;20.10;65.90
22379;DHT22;11357;49.990;7.370;2024-03-17T12:01:01;19.80;66.80
22379;DHT22;11357;49.990;7.370;2024-03-17T12:03:32;19.80;67.00
22379;DHT22;11357;49.990;7.370;2024-03-17T12:05:57;19.80;67.10
22379;DHT22;11357;49.990;7.370;2024-03-17T12:08:23;19.80;67.20
22379;DHT22;11357;49.990;7.370;2024-03-17T12:10:49;19.80;67.10
22379;DHT22;11357;49.990;7.370;2024-03-17T12:16:14;19.90;67.50
22379;DHT22;11357;49.990;7.370;2024-03-17T12:18:41;19.90;67.30
22379;DHT22;11357;49.990;7.370;2024-03-17T12:21:14;20.10;67.00
22379;DHT22;11357;49.990;7.370;2024-03-17T12:23:40;20.10;66.80
22379;DHT22;11357;49.990;7.370;2024-03-17T12:26:15;20.10;66.80
22379;DHT22;11357;49.990;7.370;2024-03-17T12:28:46;20.10;66.80
22379;DHT22;11357;49.990;7.370;2024-03-17T12:31:11;20.00;66.70
22379;DHT22;11357;49.990;7.370;2024-03-17T12:33:43;20.00;67.10
22379;DHT22;11357;49.990;7.370;2024-03-17T12:36:11;19.90;67.80
22379;DHT22;11357;49.990;7.370;2024-03-17T12:38:38;20.00;67.40
22379;DHT22;11357;49.990;7.370;2024-03-17T12:41:04;20.00;66.90
22379;DHT22;11357;49.990;7.370;2024-03-17T12:47:03;19.80;67.20
22379;DHT22;11357;49.990;7.370;2024-03-17T12:49:34;19.70;67.40
22379;DHT22;11357;49.990;7.370;2024-03-17T12:52:03;19.50;67.50
22379;DHT22;11357;49.990;7.370;2024-03-17T12:54:29;19.50;67.60
22379;DHT22;11357;49.990;7.370;2024-03-17T12:57:05;19.40;67.50
22379;DHT22;11357;49.990;7.370;2024-03-17T12:59:50;19.30;67.90
22379;DHT22;11357;49.990;7.370;2024-03-17T13:02:44;19.20;68.20
22379;DHT22;11357;49.990;7.370;2024-03-17T13:05:18;19.10;68.60
22379;DHT22;11357;49.990;7.370;2024-03-17T13:07:46;18.90;68.80
22379;DHT22;11357;49.990;7.370;2024-03-17T13:10:15;18.90;69.20
22379;DHT22;11357;49.990;7.370;2024-03-17T13:12:43;18.90;69.40
22379;DHT22;11357;49.990;7.370;2024-03-17T13:15:13;18.90;69.30
22379;DHT22;11357;49.990;7.370;2024-03-17T13:17:43;18.90;69.30
22379;DHT22;11357;49.990;7.370;2024-03-17T13:20:14;18.90;69.40
22379;DHT22;11357;49.990;7.370;2024-03-17T13:22:44;18.80;69.10
22379;DHT22;11357;49.990;7.370;2024-03-17T13:25:17;18.70;69.20
22379;DHT22;11357;49.990;7.370;2024-03-17T13:27:45;18.70;69.50
22379;DHT22;11357;49.990;7.370;2024-03-17T13:30:12;18.80;69.40
22379;DHT22;11357;49.990;7.370;2024-03-17T13:32:39;18.90;69.20
22379;DHT22;11357;49.990;7.370;2024-03-17T13:35:06;18.90;68.90
22379;DHT22;11357;49.990;7.370;2024-03-17T13:37:34;19.00;69.10
22379;DHT22;11357;49.990;7.370;2024-03-17T13:40:00;19.00;68.90
22379;DHT22;11357;49.990;7.370;2024-03-17T13:42:28;19.10;68.80
22379;DHT22;11357;49.990;7.370;2024-03-17T13:44:54;19.10;69.00
22379;DHT22;11357;49.990;7.370;2024-03-17T13:47:20;19.10;69.00
22379;DHT22;11357;49.990;7.370;2024-03-17T13:49:45;19.00;69.00
22379;DHT22;11357;49.990;7.370;2024-03-17T14:00:04;18.60;70.30
22379;DHT22;11357;49.990;7.370;2024-03-17T14:18:46;19.40;68.60
22379;DHT22;11357;49.990;7.370;2024-03-17T14:21:12;19.60;68.80
22379;DHT22;11357;49.990;7.370;2024-03-17T14:29:44;20.50;66.90
22379;DHT22;11357;49.990;7.370;2024-03-17T14:34:46;20.50;66.40
22379;DHT22;11357;49.990;7.370;2024-03-17T14:37:12;20.40;66.20
22379;DHT22;11357;49.990;7.370;2024-03-17T14:39:39;20.10;66.20
22379;DHT22;11357;49.990;7.370;2024-03-17T14:44:47;19.70;67.00
22379;DHT22;11357;49.990;7.370;2024-03-17T14:47:13;19.60;67.10
22379;DHT22;11357;49.990;7.370;2024-03-17T14:49:39;19.50;67.50
22379;DHT22;11357;49.990;7.370;2024-03-17T15:05:32;19.20;68.70
22379;DHT22;11357;49.990;7.370;2024-03-17T15:07:58;19.00;68.60
22379;DHT22;11357;49.990;7.370;2024-03-17T15:10:23;18.90;68.20
22379;DHT22;11357;49.990;7.370;2024-03-17T15:41:41;18.40;66.80
22379;DHT22;11357;49.990;7.370;2024-03-17T16:10:08;17.20;70.70
22379;DHT22;11357;49.990;7.370;2024-03-17T16:12:42;17.10;71.40
22379;DHT22;11357;49.990;7.370;2024-03-17T16:15:09;17.00;71.60
22379;DHT22;11357;49.990;7.370;2024-03-17T16:17:37;16.90;72.00
22379;DHT22;11357;49.990;7.370;2024-03-17T16:20:06;16.80;72.30
22379;DHT22;11357;49.990;7.370;2024-03-17T16:22:38;16.60;72.70
22379;DHT22;11357;49.990;7.370;2024-03-17T16:25:05;16.50;73.10
22379;DHT22;11357;49.990;7.370;2024-03-17T16:27:31;16.40;73.40
22379;DHT22;11357;49.990;7.370;2024-03-17T16:29:58;16.40;73.60
22379;DHT22;11357;49.990;7.370;2024-03-17T16:48:12;16.00;74.90
22379;DHT22;11357;49.990;7.370;2024-03-17T16:50:38;15.90;75.20
22379;DHT22;11357;49.990;7.370;2024-03-17T16:53:04;15.80;75.10
22379;DHT22;11357;49.990;7.370;2024-03-17T16:55:29;15.70;75.30
22379;DHT22;11357;49.990;7.370;2024-03-17T16:57:55;15.70;75.40
22379;DHT22;11357;49.990;7.370;2024-03-17T17:00:21;15.60;75.60
22379;DHT22;11357;49.990;7.370;2024-03-17T17:06:02;15.40;75.80
22379;DHT22;11357;49.990;7.370;2024-03-17T17:08:28;15.30;76.20
22379;DHT22;11357;49.990;7.370;2024-03-17T17:10:57;15.20;76.20
22379;DHT22;11357;49.990;7.370;2024-03-17T17:13:22;15.00;76.40
22379;DHT22;11357;49.990;7.370;2024-03-17T17:15:53;14.90;76.70
22379;DHT22;11357;49.990;7.370;2024-03-17T17:18:49;14.80;76.90
22379;DHT22;11357;49.990;7.370;2024-03-17T17:21:20;14.60;77.30
22379;DHT22;11357;49.990;7.370;2024-03-17T17:32:00;14.40;78.10
22379;DHT22;11357;49.990;7.370;2024-03-17T18:49:43;13.10;84.20
22379;DHT22;11357;49.990;7.370;2024-03-17T19:41:31;12.80;86.30
22379;DHT22;11357;49.990;7.370;2024-03-17T20:07:14;12.80;86.90
22379;DHT22;11357;49.990;7.370;2024-03-17T20:09:41;12.70;87.00
22379;DHT22;11357;49.990;7.370;2024-03-17T20:27:45;12.60;88.00
22379;DHT22;11357;49.990;7.370;2024-03-17T20:30:11;12.60;88.30
22379;DHT22;11357;49.990;7.370;2024-03-17T20:32:37;12.60;88.30
22379;DHT22;11357;49.990;7.370;2024-03-17T20:35:02;12.50;88.40
22379;DHT22;11357;49.990;7.370;2024-03-17T20:37:28;12.50;88.60
22379;DHT22;11357;49.990;7.370;2024-03-17T20:39:54;12.50;88.60
22379;DHT22;11357;49.990;7.370;2024-03-17T20:42:21;12.50;88.80
22379;DHT22;11357;49.990;7.370;2024-03-17T20:44:46;12.50;88.90
22379;DHT22;11357;49.990;7.370;2024-03-17T20:47:13;12.50;89.00
22379;DHT22;11357;49.990;7.370;2024-03-17T20:49:39;12.40;89.80
22379;DHT22;11357;49.990;7.370;2024-03-17T20:57:30;12.40;89.30
22379;DHT22;11357;49.990;7.370;2024-03-17T21:00:22;12.40;89.50
22379;DHT22;11357;49.990;7.370;2024-03-17T21:05:59;12.40;89.40
22379;DHT22;11357;49.990;7.370;2024-03-17T21:08:28;12.40;89.60
22379;DHT22;11357;49.990;7.370;2024-03-17T21:10:57;12.40;89.40
22379;DHT22;11357;49.990;7.370;2024-03-17T21:13:25;12.40;89.60
22379;DHT22;11357;49.990;7.370;2024-03-17T21:15:50;12.40;89.60
22379;DHT22;11357;49.990;7.370;2024-03-17T21:18:17;12.40;89.60
22379;DHT22;11357;49.990;7.370;2024-03-17T21:20:44;12.40;89.60
22379;DHT22;11357;49.990;7.370;2024-03-17T21:23:25;12.40;89.80
22379;DHT22;11357;49.990;7.370;2024-03-17T21:25:51;12.40;90.00
22379;DHT22;11357;49.990;7.370;2024-03-17T21:28:16;12.40;89.90
22379;DHT22;11357;49.990;7.370;2024-03-17T21:30:43;12.40;90.00
22379;DHT22;11357;49.990;7.370;2024-03-17T21:35:50;12.50;90.00
22379;DHT22;11357;49.990;7.370;2024-03-17T21:38:18;12.50;90.00
22379;DHT22;11357;49.990;7.370;2024-03-17T21:40:44;12.50;90.00
22379;DHT22;11357;49.990;7.370;2024-03-17T21:46:00;12.60;90.00
22379;DHT22;11357;49.990;7.370;2024-03-17T21:48:26;12.60;90.00
22379;DHT22;11357;49.990;7.370;2024-03-17T21:50:55;12.70;90.00
22379;DHT22;11357;49.990;7.370;2024-03-17T21:53:21;12.70;90.00
22379;DHT22;11357;49.990;7.370;2024-03-17T21:56:00;12.70;90.00
22379;DHT22;11357;49.990;7.370;2024-03-17T21:58:26;12.70;90.00
22379;DHT22;11357;49.990;7.370;2024-03-17T22:00:52;12.80;89.90
22379;DHT22;11357;49.990;7.370;2024-03-17T22:40:29;13.10;90.00
22379;DHT22;11357;49.990;7.370;2024-03-17T22:43:00;13.10;89.80
22379;DHT22;11357;49.990;7.370;2024-03-17T22:45:26;13.00;90.00
22379;DHT22;11357;49.990;7.370;2024-03-17T22:47:52;13.00;90.00
22379;DHT22;11357;49.990;7.370;2024-03-17T22:50:17;13.00;90.10
